createdAt,value
2018-08-12T00:00:48.882Z,2.20
2018-08-12T00:03:17.616Z,1.97
2018-08-12T00:05:46.331Z,2.30
2018-08-12T00:08:15.036Z,1.80
2018-08-12T00:10:43.828Z,2.10
2018-08-12T00:13:12.580Z,2.37
2018-08-12T00:15:41.354Z,2.47
2018-08-12T00:18:10.075Z,2.70
2018-08-12T00:20:38.718Z,2.70
2018-08-12T00:23:07.431Z,2.33
2018-08-12T00:25:36.129Z,2.60
2018-08-12T00:28:04.899Z,2.70
2018-08-12T00:30:33.630Z,2.80
2018-08-12T00:33:02.313Z,2.80
2018-08-12T00:35:31.226Z,2.70
2018-08-12T00:37:59.931Z,2.53
2018-08-12T00:40:28.648Z,2.90
2018-08-12T00:42:57.361Z,3.43
2018-08-12T00:45:26.055Z,2.90
2018-08-12T00:47:54.772Z,2.90
2018-08-12T00:50:23.471Z,3.40
2018-08-12T00:52:52.239Z,3.60
2018-08-12T00:55:20.983Z,3.40
2018-08-12T00:57:49.719Z,3.20
2018-08-12T01:00:21.244Z,3.17
2018-08-12T01:02:50.009Z,3.47
2018-08-12T01:05:19.780Z,3.97
2018-08-12T01:07:49.393Z,3.13
2018-08-12T01:10:18.718Z,3.80
2018-08-12T01:12:47.465Z,3.10
2018-08-12T01:15:18.465Z,3.10
2018-08-12T01:17:47.201Z,2.80
2018-08-12T01:20:18.681Z,3.30
2018-08-12T01:22:47.404Z,3.30
2018-08-12T01:25:16.172Z,3.33
2018-08-12T01:27:44.891Z,3.40
2018-08-12T01:30:15.991Z,3.70
2018-08-12T01:32:45.108Z,3.70
2018-08-12T01:35:14.553Z,3.00
2018-08-12T01:37:44.119Z,3.10
2018-08-12T01:40:14.455Z,2.73
2018-08-12T01:42:43.801Z,2.87
2018-08-12T01:45:14.432Z,3.00
2018-08-12T01:47:43.212Z,3.10
2018-08-12T01:50:13.588Z,3.30
2018-08-12T01:52:42.389Z,3.40
2018-08-12T01:55:11.181Z,3.20
2018-08-12T01:57:39.928Z,3.17
2018-08-12T02:00:13.535Z,3.57
2018-08-12T02:02:42.221Z,3.60
2018-08-12T02:05:10.996Z,3.70
2018-08-12T02:07:39.676Z,4.00
2018-08-12T02:10:09.634Z,3.50
2018-08-12T02:12:38.387Z,3.30
2018-08-12T02:15:07.962Z,3.77
2018-08-12T02:17:36.629Z,3.83
2018-08-12T02:20:06.434Z,3.60
2018-08-12T02:22:35.169Z,4.13
2018-08-12T02:25:04.149Z,4.10
2018-08-12T02:27:32.829Z,3.67
2018-08-12T02:30:01.504Z,3.80
2018-08-12T02:32:30.191Z,3.77
2018-08-12T02:34:58.931Z,3.77
2018-08-12T02:37:27.588Z,4.00
2018-08-12T02:39:56.254Z,3.67
2018-08-12T02:42:24.932Z,3.73
2018-08-12T02:44:53.638Z,4.07
2018-08-12T02:47:22.330Z,4.10
2018-08-12T02:49:51.075Z,4.00
2018-08-12T02:52:19.790Z,4.00
2018-08-12T02:54:48.561Z,4.27
2018-08-12T02:57:17.220Z,4.03
2018-08-12T02:59:45.969Z,4.57
2018-08-12T03:02:14.659Z,3.90
2018-08-12T03:04:43.393Z,4.17
2018-08-12T03:07:12.049Z,4.07
2018-08-12T03:09:40.761Z,4.10
2018-08-12T03:12:09.416Z,4.70
2018-08-12T03:14:38.135Z,5.23
2018-08-12T03:17:06.798Z,7.67
2018-08-12T03:19:35.518Z,5.50
2018-08-12T03:22:04.563Z,5.77
2018-08-12T03:24:33.254Z,5.17
2018-08-12T03:27:01.914Z,7.97
2018-08-12T03:29:30.637Z,6.10
2018-08-12T03:31:59.331Z,4.80
2018-08-12T03:34:28.030Z,5.10
2018-08-12T03:36:56.664Z,5.20
2018-08-12T03:39:25.330Z,4.80
2018-08-12T03:41:54.056Z,5.87
2018-08-12T03:44:22.738Z,6.00
2018-08-12T03:46:51.421Z,5.80
2018-08-12T03:49:20.117Z,4.80
2018-08-12T03:51:48.788Z,5.20
2018-08-12T03:54:17.512Z,5.10
2018-08-12T03:56:46.220Z,4.60
2018-08-12T03:59:14.962Z,4.83
2018-08-12T04:01:43.608Z,6.80
2018-08-12T04:04:12.316Z,6.43
2018-08-12T04:06:41.058Z,7.13
2018-08-12T04:09:10.674Z,7.30
2018-08-12T04:11:39.372Z,8.87
2018-08-12T04:14:08.101Z,8.23
2018-08-12T04:16:36.781Z,10.13
2018-08-12T04:19:05.920Z,10.77
2018-08-12T04:21:34.561Z,9.67
2018-08-12T04:24:03.261Z,16.00
2018-08-12T04:26:32.026Z,7.47
2018-08-12T04:29:00.718Z,6.97
2018-08-12T04:31:29.509Z,7.83
2018-08-12T04:33:58.187Z,12.30
2018-08-12T04:36:26.874Z,11.47
2018-08-12T04:38:55.549Z,22.93
2018-08-12T04:41:24.226Z,17.87
2018-08-12T04:43:53.025Z,21.53
2018-08-12T04:46:21.743Z,19.83
2018-08-12T04:48:50.436Z,14.43
2018-08-12T04:51:19.139Z,18.10
2018-08-12T04:53:47.784Z,15.03
2018-08-12T04:56:16.561Z,15.57
2018-08-12T04:58:45.224Z,19.33
2018-08-12T05:01:13.953Z,17.90
2018-08-12T05:03:42.658Z,19.27
2018-08-12T05:06:11.405Z,16.63
2018-08-12T05:08:40.122Z,17.23
2018-08-12T05:11:08.796Z,13.33
2018-08-12T05:13:37.517Z,14.47
2018-08-12T05:16:06.304Z,12.77
2018-08-12T05:18:35.298Z,12.70
2018-08-12T05:21:03.997Z,11.73
2018-08-12T05:23:32.681Z,12.97
2018-08-12T05:26:01.361Z,11.70
2018-08-12T05:28:30.212Z,13.00
2018-08-12T05:30:58.874Z,12.73
2018-08-12T05:33:27.581Z,10.43
2018-08-12T05:35:56.292Z,11.33
2018-08-12T05:38:25.010Z,12.50
2018-08-12T05:40:53.748Z,12.07
2018-08-12T05:43:22.424Z,9.50
2018-08-12T05:45:51.150Z,10.63
2018-08-12T05:48:19.895Z,10.33
2018-08-12T05:50:48.607Z,9.43
2018-08-12T05:53:17.304Z,8.63
2018-08-12T05:55:46.012Z,7.90
2018-08-12T05:58:14.687Z,7.17
2018-08-12T06:00:43.398Z,7.90
2018-08-12T06:03:12.093Z,7.47
2018-08-12T06:05:40.760Z,7.83
2018-08-12T06:08:09.505Z,6.93
2018-08-12T06:10:38.253Z,6.70
2018-08-12T06:13:06.935Z,6.70
2018-08-12T06:15:35.684Z,6.90
2018-08-12T06:18:04.465Z,5.93
2018-08-12T06:20:33.145Z,5.73
2018-08-12T06:23:01.935Z,5.40
2018-08-12T06:25:30.714Z,5.40
2018-08-12T06:27:59.433Z,4.90
2018-08-12T06:30:28.204Z,5.10
2018-08-12T06:32:56.902Z,4.40
2018-08-12T06:35:25.593Z,4.10
2018-08-12T06:37:54.281Z,4.07
2018-08-12T06:40:23.020Z,3.60
2018-08-12T06:42:51.742Z,3.13
2018-08-12T06:45:20.426Z,2.70
2018-08-12T06:47:49.137Z,2.53
2018-08-12T06:50:17.889Z,2.00
2018-08-12T06:52:46.587Z,2.10
2018-08-12T06:55:15.242Z,2.00
2018-08-12T06:57:44.536Z,1.83
2018-08-12T07:00:18.921Z,1.90
2018-08-12T07:02:47.923Z,1.50
2018-08-12T07:05:16.586Z,1.93
2018-08-12T07:07:46.094Z,1.37
2018-08-12T07:10:15.732Z,1.60
2018-08-12T07:12:44.919Z,1.57
2018-08-12T07:15:17.011Z,1.40
2018-08-12T07:17:46.386Z,1.67
2018-08-12T07:20:15.512Z,1.30
2018-08-12T07:22:44.227Z,1.60
2018-08-12T07:25:14.221Z,1.67
2018-08-12T07:27:43.596Z,1.20
2018-08-12T07:30:13.964Z,1.50
2018-08-12T07:32:42.658Z,1.40
2018-08-12T07:35:12.093Z,1.53
2018-08-12T07:37:41.313Z,1.63
2018-08-12T07:40:14.701Z,1.40
2018-08-12T07:42:43.466Z,1.40
2018-08-12T07:45:13.349Z,1.40
2018-08-12T07:47:42.715Z,1.50
2018-08-12T07:50:11.747Z,1.50
2018-08-12T07:52:41.551Z,1.07
2018-08-12T07:55:11.365Z,1.60
2018-08-12T07:57:40.506Z,1.50
2018-08-12T08:00:14.840Z,1.57
2018-08-12T08:02:43.641Z,1.60
2018-08-12T08:05:12.363Z,1.60
2018-08-12T08:07:41.182Z,1.50
2018-08-12T08:10:12.272Z,1.30
2018-08-12T08:12:41.374Z,1.60
2018-08-12T08:15:13.401Z,1.40
2018-08-12T08:17:42.393Z,1.63
2018-08-12T08:20:12.826Z,1.43
2018-08-12T08:22:41.834Z,1.63
2018-08-12T08:25:11.447Z,1.50
2018-08-12T08:27:40.369Z,2.30
2018-08-12T08:30:11.275Z,1.60
2018-08-12T08:32:40.323Z,1.60
2018-08-12T08:35:09.391Z,1.40
2018-08-12T08:37:38.185Z,1.47
2018-08-12T08:40:11.644Z,1.30
2018-08-12T08:42:40.426Z,1.50
2018-08-12T08:45:15.476Z,1.53
2018-08-12T08:47:45.702Z,1.30
2018-08-12T08:50:14.693Z,1.20
2018-08-12T08:52:43.460Z,1.30
2018-08-12T08:55:13.192Z,1.30
2018-08-12T08:57:43.794Z,1.33
2018-08-12T09:00:15.409Z,1.30
2018-08-12T09:02:45.726Z,1.20
2018-08-12T09:05:15.405Z,1.37
2018-08-12T09:07:44.468Z,1.30
2018-08-12T09:10:14.625Z,1.37
2018-08-12T09:12:43.324Z,1.30
2018-08-12T09:15:14.450Z,1.20
2018-08-12T09:17:44.066Z,1.23
2018-08-12T09:20:14.683Z,1.30
2018-08-12T09:22:43.481Z,1.70
2018-08-12T09:25:12.924Z,1.33
2018-08-12T09:27:41.635Z,1.20
2018-08-12T09:30:13.738Z,1.40
2018-08-12T09:32:42.821Z,1.37
2018-08-12T09:35:11.497Z,1.23
2018-08-12T09:37:40.289Z,1.20
2018-08-12T09:40:12.336Z,1.07
2018-08-12T09:42:41.882Z,1.27
2018-08-12T09:45:12.996Z,1.30
2018-08-12T09:47:41.762Z,1.27
2018-08-12T09:50:11.224Z,1.10
2018-08-12T09:52:40.120Z,1.50
2018-08-12T09:55:09.805Z,1.30
2018-08-12T09:57:38.532Z,1.10
2018-08-12T10:00:11.065Z,1.30
2018-08-12T10:02:39.840Z,1.50
2018-08-12T10:05:08.582Z,1.50
2018-08-12T10:07:37.339Z,1.40
2018-08-12T10:10:06.001Z,1.27
2018-08-12T10:12:34.697Z,1.30
2018-08-12T10:15:03.412Z,1.30
2018-08-12T10:17:32.187Z,1.27
2018-08-12T10:20:00.886Z,1.23
2018-08-12T10:22:29.692Z,1.40
2018-08-12T10:24:58.424Z,1.50
2018-08-12T10:27:27.431Z,1.33
2018-08-12T10:29:56.087Z,1.20
2018-08-12T10:32:24.744Z,1.13
2018-08-12T10:34:53.459Z,1.33
2018-08-12T10:37:22.562Z,1.40
2018-08-12T10:39:51.272Z,1.30
2018-08-12T10:42:20.054Z,1.50
2018-08-12T10:44:48.983Z,1.40
2018-08-12T10:47:17.755Z,1.40
2018-08-12T10:49:46.446Z,1.57
2018-08-12T10:52:15.207Z,1.50
2018-08-12T10:54:44.087Z,1.30
2018-08-12T10:57:12.851Z,1.30
2018-08-12T10:59:41.810Z,1.50
2018-08-12T11:02:10.635Z,1.40
2018-08-12T11:04:39.480Z,1.67
2018-08-12T11:07:08.335Z,1.20
2018-08-12T11:09:37.089Z,1.60
2018-08-12T11:12:05.922Z,1.40
2018-08-12T11:14:34.673Z,1.37
2018-08-12T11:17:03.431Z,1.40
2018-08-12T11:19:32.184Z,1.57
2018-08-12T11:22:00.927Z,1.50
2018-08-12T11:24:29.744Z,1.60
2018-08-12T11:26:58.522Z,1.47
2018-08-12T11:29:27.197Z,1.50
2018-08-12T11:31:55.938Z,2.00
2018-08-12T11:34:24.604Z,1.70
2018-08-12T11:36:53.318Z,1.60
2018-08-12T11:39:21.992Z,1.20
2018-08-12T11:41:50.697Z,1.30
2018-08-12T11:44:19.358Z,1.27
2018-08-12T11:46:48.069Z,1.40
2018-08-12T11:49:16.754Z,1.30
2018-08-12T11:51:45.464Z,1.47
2018-08-12T11:54:15.950Z,1.33
2018-08-12T11:56:45.222Z,1.40
2018-08-12T11:59:14.045Z,1.57
2018-08-12T12:01:44.479Z,1.30
2018-08-12T12:04:14.063Z,1.40
2018-08-12T12:06:43.493Z,1.50
2018-08-12T12:09:12.392Z,1.30
2018-08-12T12:11:41.957Z,1.50
2018-08-12T12:14:10.891Z,1.57
2018-08-12T12:16:39.560Z,1.30
2018-08-12T12:19:08.486Z,1.40
2018-08-12T12:21:37.212Z,1.30
2018-08-12T12:24:05.990Z,1.50
2018-08-12T12:26:34.800Z,1.43
2018-08-12T12:29:03.599Z,1.40
2018-08-12T12:31:32.454Z,1.60
2018-08-12T12:34:01.255Z,1.60
2018-08-12T12:36:30.333Z,1.40
2018-08-12T12:38:59.065Z,1.30
2018-08-12T12:41:27.970Z,1.50
2018-08-12T12:43:56.764Z,1.50
2018-08-12T12:46:25.616Z,1.20
2018-08-12T12:48:54.389Z,1.43
2018-08-12T12:51:23.172Z,1.40
2018-08-12T12:53:51.989Z,1.17
2018-08-12T12:56:20.816Z,1.33
2018-08-12T12:58:49.739Z,1.23
2018-08-12T13:01:18.635Z,1.30
2018-08-12T13:03:47.516Z,1.13
2018-08-12T13:06:16.424Z,1.30
2018-08-12T13:08:45.242Z,1.20
2018-08-12T13:11:13.962Z,1.33
2018-08-12T13:13:42.777Z,1.37
2018-08-12T13:16:11.543Z,1.20
2018-08-12T13:18:40.310Z,1.40
2018-08-12T13:21:09.112Z,1.20
2018-08-12T13:23:37.880Z,1.37
2018-08-12T13:26:06.833Z,1.10
2018-08-12T13:28:35.668Z,1.10
2018-08-12T13:31:04.462Z,1.20
2018-08-12T13:33:33.944Z,1.10
2018-08-12T13:36:02.719Z,1.10
2018-08-12T13:38:31.667Z,1.20
2018-08-12T13:41:00.491Z,1.20
2018-08-12T13:43:29.371Z,1.07
2018-08-12T13:45:58.316Z,1.20
2018-08-12T13:48:27.109Z,1.00
2018-08-12T13:50:55.947Z,1.10
2018-08-12T13:53:24.736Z,1.10
2018-08-12T13:55:53.552Z,0.93
2018-08-12T13:58:22.317Z,1.00
2018-08-12T14:00:51.148Z,0.90
2018-08-12T14:03:19.920Z,0.90
2018-08-12T14:05:48.696Z,1.10
2018-08-12T14:08:17.529Z,0.77
2018-08-12T14:10:46.326Z,0.80
2018-08-12T14:13:15.123Z,1.00
2018-08-12T14:15:43.934Z,1.17
2018-08-12T14:18:12.756Z,1.00
2018-08-12T14:20:41.537Z,0.87
2018-08-12T14:23:10.431Z,0.80
2018-08-12T14:25:39.216Z,0.90
2018-08-12T14:28:07.969Z,0.97
2018-08-12T14:30:36.764Z,0.80
2018-08-12T14:33:05.580Z,0.90
2018-08-12T14:35:34.370Z,0.70
2018-08-12T14:38:03.270Z,0.90
2018-08-12T14:40:32.236Z,1.00
2018-08-12T14:43:01.075Z,0.90
2018-08-12T14:45:30.108Z,0.80
2018-08-12T14:47:58.979Z,0.83
2018-08-12T14:50:27.814Z,1.03
2018-08-12T14:52:56.611Z,0.80
2018-08-12T14:55:25.479Z,0.80
2018-08-12T14:57:54.303Z,1.10
2018-08-12T15:00:23.044Z,0.80
2018-08-12T15:02:52.756Z,1.00
2018-08-12T15:05:21.911Z,0.70
2018-08-12T15:07:50.744Z,0.70
2018-08-12T15:10:19.629Z,0.80
2018-08-12T15:12:48.432Z,0.70
2018-08-12T15:15:17.624Z,0.93
2018-08-12T15:17:47.042Z,0.83
2018-08-12T15:20:16.648Z,0.80
2018-08-12T15:22:45.543Z,0.90
2018-08-12T15:25:16.317Z,0.80
2018-08-12T15:27:45.455Z,0.70
2018-08-12T15:30:14.322Z,0.80
2018-08-12T15:32:43.201Z,0.70
2018-08-12T15:35:11.984Z,0.80
2018-08-12T15:37:40.797Z,0.93
2018-08-12T15:40:12.895Z,0.87
2018-08-12T15:42:42.265Z,0.80
2018-08-12T15:45:13.351Z,0.80
2018-08-12T15:47:42.936Z,0.70
2018-08-12T15:50:12.224Z,0.90
2018-08-12T15:52:42.119Z,0.83
2018-08-12T15:55:11.265Z,0.87
2018-08-12T15:57:40.252Z,1.10
2018-08-12T16:00:18.616Z,0.73
2018-08-12T16:02:47.474Z,1.00
2018-08-12T16:05:16.362Z,0.80
2018-08-12T16:07:46.360Z,0.90
2018-08-12T16:10:17.803Z,0.80
2018-08-12T16:12:48.836Z,0.80
2018-08-12T16:15:17.737Z,0.80
2018-08-12T16:17:46.531Z,0.80
2018-08-12T16:20:15.323Z,0.97
2018-08-12T16:22:44.192Z,1.10
2018-08-12T16:25:15.632Z,1.10
2018-08-12T16:27:44.845Z,1.10
2018-08-12T16:30:15.382Z,1.00
2018-08-12T16:32:44.239Z,0.97
2018-08-12T16:35:14.475Z,1.00
2018-08-12T16:37:43.961Z,1.13
2018-08-12T16:40:15.238Z,1.10
2018-08-12T16:42:44.071Z,1.00
2018-08-12T16:45:14.461Z,1.00
2018-08-12T16:47:43.835Z,1.20
2018-08-12T16:50:12.954Z,1.30
2018-08-12T16:52:42.132Z,1.20
2018-08-12T16:55:13.696Z,1.17
2018-08-12T16:57:43.015Z,1.00
2018-08-12T17:00:16.097Z,1.50
2018-08-12T17:02:45.550Z,1.40
2018-08-12T17:05:15.899Z,1.00
2018-08-12T17:07:45.203Z,1.10
2018-08-12T17:10:14.952Z,1.27
2018-08-12T17:12:43.884Z,1.23
2018-08-12T17:15:14.654Z,1.23
2018-08-12T17:17:43.468Z,1.20
2018-08-12T17:20:13.669Z,1.30
2018-08-12T17:22:43.719Z,1.30
2018-08-12T17:25:12.517Z,1.77
2018-08-12T17:27:41.315Z,1.50
2018-08-12T17:30:12.468Z,1.30
2018-08-12T17:32:41.449Z,1.37
2018-08-12T17:35:10.608Z,1.50
2018-08-12T17:37:39.952Z,1.47
2018-08-12T17:40:11.070Z,1.70
2018-08-12T17:42:39.900Z,1.40
2018-08-12T17:45:11.481Z,1.43
2018-08-12T17:47:40.776Z,1.60
2018-08-12T17:50:11.256Z,1.43
2018-08-12T17:52:40.401Z,1.70
2018-08-12T17:55:09.291Z,1.40
2018-08-12T17:57:38.189Z,1.33
2018-08-12T18:00:09.292Z,1.63
2018-08-12T18:02:38.202Z,1.57
2018-08-12T18:05:07.411Z,1.60
2018-08-12T18:07:36.297Z,1.57
2018-08-12T18:10:05.676Z,1.80
2018-08-12T18:12:34.489Z,1.70
2018-08-12T18:15:03.374Z,1.63
2018-08-12T18:17:33.699Z,1.67
2018-08-12T18:20:02.883Z,1.70
2018-08-12T18:22:31.706Z,1.73
2018-08-12T18:25:00.475Z,1.63
2018-08-12T18:27:29.255Z,1.80
2018-08-12T18:29:58.009Z,1.60
2018-08-12T18:32:26.755Z,1.73
2018-08-12T18:34:55.453Z,1.80
2018-08-12T18:37:24.129Z,1.90
2018-08-12T18:39:52.838Z,2.00
2018-08-12T18:42:21.828Z,1.80
2018-08-12T18:44:50.522Z,2.10
2018-08-12T18:47:19.236Z,2.07
2018-08-12T18:49:47.891Z,2.00
2018-08-12T18:52:16.596Z,2.10
2018-08-12T18:54:45.331Z,2.00
2018-08-12T18:57:14.030Z,1.93
2018-08-12T18:59:42.720Z,1.80
2018-08-12T19:02:11.575Z,1.70
2018-08-12T19:04:40.261Z,2.00
2018-08-12T19:07:09.005Z,2.30
2018-08-12T19:09:37.784Z,2.20
2018-08-12T19:12:06.773Z,2.30
2018-08-12T19:14:35.451Z,2.00
2018-08-12T19:17:04.285Z,2.17
2018-08-12T19:19:32.985Z,2.17
2018-08-12T19:22:01.779Z,2.00
2018-08-12T19:24:30.594Z,2.00
2018-08-12T19:26:59.322Z,2.20
2018-08-12T19:29:27.988Z,2.00
2018-08-12T19:31:56.737Z,2.20
2018-08-12T19:34:25.618Z,2.00
2018-08-12T19:36:54.515Z,2.10
2018-08-12T19:39:23.340Z,2.00
2018-08-12T19:41:52.066Z,2.30
2018-08-12T19:44:20.841Z,2.10
2018-08-12T19:46:49.708Z,1.90
2018-08-12T19:49:18.336Z,2.03
2018-08-12T19:51:47.028Z,2.03
2018-08-12T19:54:15.782Z,2.10
2018-08-12T19:56:44.489Z,2.33
2018-08-12T19:59:13.280Z,2.30
2018-08-12T20:01:42.079Z,2.40
2018-08-12T20:04:10.763Z,2.37
2018-08-12T20:06:39.552Z,2.30
2018-08-12T20:09:14.993Z,2.10
2018-08-12T20:11:43.779Z,2.20
2018-08-12T20:14:12.503Z,2.13
2018-08-12T20:16:41.268Z,2.10
2018-08-12T20:19:10.060Z,2.30
2018-08-12T20:21:38.822Z,2.30
2018-08-12T20:24:07.535Z,2.30
2018-08-12T20:26:36.258Z,2.10
2018-08-12T20:29:04.992Z,2.20
2018-08-12T20:31:33.647Z,2.00
2018-08-12T20:34:02.414Z,2.33
2018-08-12T20:36:31.192Z,1.87
2018-08-12T20:39:00.028Z,2.17
2018-08-12T20:41:28.753Z,2.10
2018-08-12T20:43:57.463Z,2.50
2018-08-12T20:46:26.335Z,2.27
2018-08-12T20:48:54.999Z,2.20
2018-08-12T20:51:23.704Z,2.17
2018-08-12T20:53:52.461Z,1.97
2018-08-12T20:56:21.289Z,2.10
2018-08-12T20:58:50.465Z,2.33
2018-08-12T21:01:19.257Z,2.13
2018-08-12T21:03:47.996Z,2.13
2018-08-12T21:06:16.727Z,2.30
2018-08-12T21:08:45.486Z,2.00
2018-08-12T21:11:14.181Z,2.10
2018-08-12T21:13:42.832Z,2.50
2018-08-12T21:16:11.541Z,2.43
2018-08-12T21:18:40.407Z,2.33
2018-08-12T21:21:09.149Z,2.23
2018-08-12T21:23:37.897Z,2.53
2018-08-12T21:26:06.675Z,2.03
2018-08-12T21:28:35.343Z,2.30
2018-08-12T21:31:04.140Z,2.27
2018-08-12T21:33:32.881Z,2.50
2018-08-12T21:36:01.692Z,2.40
2018-08-12T21:38:30.368Z,2.30
2018-08-12T21:40:59.165Z,2.50
2018-08-12T21:43:27.849Z,2.50
2018-08-12T21:45:56.766Z,2.40
2018-08-12T21:48:25.414Z,2.37
2018-08-12T21:50:54.107Z,2.40
2018-08-12T21:53:22.787Z,2.63
2018-08-12T21:55:51.463Z,2.30
2018-08-12T21:58:20.865Z,2.60
2018-08-12T22:00:49.782Z,2.60
2018-08-12T22:03:18.574Z,2.93
2018-08-12T22:05:47.316Z,2.50
2018-08-12T22:08:16.018Z,2.53
2018-08-12T22:10:45.815Z,2.20
2018-08-12T22:13:15.016Z,2.43
2018-08-12T22:15:44.146Z,2.60
2018-08-12T22:18:13.313Z,2.60
2018-08-12T22:20:42.108Z,2.30
2018-08-12T22:23:10.901Z,2.47
2018-08-12T22:25:39.772Z,2.87
2018-08-12T22:28:08.621Z,2.60
2018-08-12T22:30:37.524Z,2.50
2018-08-12T22:33:06.305Z,2.50
2018-08-12T22:35:35.007Z,2.70
2018-08-12T22:38:03.722Z,2.77
2018-08-12T22:40:32.434Z,2.43
2018-08-12T22:43:01.093Z,2.60
2018-08-12T22:45:29.869Z,2.67
2018-08-12T22:47:58.513Z,3.00
2018-08-12T22:50:27.223Z,2.67
2018-08-12T22:52:55.938Z,2.50
2018-08-12T22:55:24.657Z,2.97
2018-08-12T22:57:53.331Z,2.90
2018-08-12T23:00:22.085Z,2.97
2018-08-12T23:02:50.886Z,2.93
2018-08-12T23:05:19.622Z,2.60
2018-08-12T23:07:48.427Z,2.90
2018-08-12T23:10:17.137Z,2.87
2018-08-12T23:12:46.066Z,2.90
2018-08-12T23:15:26.011Z,2.70
2018-08-12T23:17:54.689Z,2.80
2018-08-12T23:20:23.353Z,3.00
2018-08-12T23:22:52.109Z,2.90
2018-08-12T23:25:20.841Z,3.00
2018-08-12T23:27:49.516Z,2.73
2018-08-12T23:30:18.223Z,3.10
2018-08-12T23:32:47.054Z,2.93
2018-08-12T23:35:15.767Z,2.57
2018-08-12T23:37:44.459Z,2.93
2018-08-12T23:40:13.134Z,2.77
2018-08-12T23:42:41.858Z,2.70
2018-08-12T23:45:10.566Z,2.90
2018-08-12T23:47:39.245Z,3.20
2018-08-12T23:50:07.957Z,3.27
2018-08-12T23:52:36.661Z,3.10
2018-08-12T23:55:05.391Z,3.20
2018-08-12T23:57:34.098Z,3.23
